Time;durP1;ratioP1;P1;durP2;ratioP2;P2;SDS_P1;SDS_P2;PMS_P1;PMS_P2;Temp;Humidity;BMP_temperature;BMP_pressure;BME280_temperature;BME280_humidity;BME280_pressure;Samples;Min_cycle;Max_cycle;Signal;HPM_P1;HPM_P2
2024/02/07 00:00:20;;;;;;;;;;;;;;;;;;4956346;28;5239;-62
2024/02/07 00:02:45;;;;;;;;;;;;;;;;;;4964014;28;5159;-63
2024/02/07 00:05:11;;;;;;;;;;;;;;;;;;4957252;28;5021;-63
2024/02/07 00:07:36;;;;;;;;;;;;;;;;;;4964397;28;4955;-62
2024/02/07 00:10:03;;;;;;;;;;;;;;;;;;4962034;28;3370;-64
2024/02/07 00:12:28;;;;;;;;;;;;;;;;;;4965390;28;4979;-63
2024/02/07 00:14:54;;;;;;;;;;;;;;;;;;4963765;28;4924;-63
2024/02/07 00:17:21;;;;;;;;;;;;;;;;;;4932538;28;5032;-62
2024/02/07 00:19:46;;;;;;;;;;;;;;;;;;4962378;28;4574;-63
2024/02/07 00:22:11;;;;;;;;;;;;;;;;;;4959380;28;3413;-62
2024/02/07 00:24:39;;;;;;;;;;;;;;;;;;4961398;28;4953;-62
2024/02/07 00:27:04;;;;;;;;;;;;;;;;;;4961611;28;5209;-62
2024/02/07 00:29:29;;;;;;;;;;;;;;;;;;4962843;28;4703;-62
2024/02/07 00:31:55;;;;;;;;;;;;;;;;;;4964664;28;5633;-62
2024/02/07 00:34:20;;;;;;;;;;;;;;;;;;4964642;28;4585;-62
2024/02/07 00:36:45;;;;;;;;;;;;;;;;;;4968920;28;3866;-62
2024/02/07 00:39:11;;;;;;;;;;;;;;;;;;4954375;28;5367;-63
2024/02/07 00:41:36;;;;;;;;;;;;;;;;;;4964055;28;5035;-63
2024/02/07 00:44:01;;;;;;;;;;;;;;;;;;4961914;28;5173;-63
2024/02/07 00:46:27;;;;;;;;;;;;;;;;;;4963135;28;5060;-63
2024/02/07 00:48:52;;;;;;;;;;;;;;;;;;4961965;28;1236;-63
2024/02/07 00:51:18;;;;;;;;;;;;;;;;;;4962083;28;4681;-63
2024/02/07 00:53:43;;;;;;;;;;;;;;;;;;4965325;28;5052;-63
2024/02/07 00:56:08;;;;;;;;;;;;;;;;;;4959482;28;5129;-63
2024/02/07 00:58:34;;;;;;;;;;;;;;;;;;4963065;28;5116;-63
2024/02/07 01:00:59;;;;;;;;;;;;;;;;;;4966872;28;3409;-62
2024/02/07 01:03:24;;;;;;;;;;;;;;;;;;4963574;28;5150;-63
2024/02/07 01:05:50;;;;;;;;;;;;;;;;;;4957583;28;5360;-63
2024/02/07 01:08:15;;;;;;;;;;;;;;;;;;4960798;28;5180;-64
2024/02/07 01:10:42;;;;;;;;;;;;;;;;;;4964894;28;5121;-63
2024/02/07 01:13:07;;;;;;;;;;;;;;;;;;4964303;28;3420;-61
2024/02/07 01:15:32;;;;;;;;;;;;;;;;;;4966906;28;5188;-63
2024/02/07 01:17:58;;;;;;;;;;;;;;;;;;4962258;28;5128;-63
2024/02/07 01:20:23;;;;;;;;;;;;;;;;;;4969028;28;5301;-63
2024/02/07 01:22:48;;;;;;;;;;;;;;;;;;4970560;28;4479;-63
2024/02/07 01:25:14;;;;;;;;;;;;;;;;;;4960257;28;3392;-63
2024/02/07 01:27:39;;;;;;;;;;;;;;;;;;4965827;28;5111;-63
2024/02/07 01:30:07;;;;;;;;;;;;;;;;;;4964204;28;5029;-63
2024/02/07 01:32:32;;;;;;;;;;;;;;;;;;4969432;28;5186;-62
2024/02/07 01:34:58;;;;;;;;;;;;;;;;;;4969902;28;5193;-63
2024/02/07 01:37:23;;;;;;;;;;;;;;;;;;4965849;28;5075;-63
2024/02/07 01:39:48;;;;;;;;;;;;;;;;;;4966853;28;3433;-63
2024/02/07 01:42:14;;;;;;;;;;;;;;;;;;4970392;28;5104;-63
2024/02/07 01:44:39;;;;;;;;;;;;;;;;;;4965646;28;5267;-62
2024/02/07 01:47:14;;;;;;;;;;;;;;;;;;4961741;28;4937;-62
2024/02/07 01:49:45;;;;;;;;;;;;;;;;;;4951214;28;4943;-65
2024/02/07 01:52:10;;;;;;;;;;;;;;;;;;4963725;28;3710;-62
2024/02/07 01:54:37;;;;;;;;;;;;;;;;;;4949583;28;4444;-63
2024/02/07 01:57:02;;;;;;;;;;;;;;;;;;4965363;28;5071;-62
2024/02/07 01:59:27;;;;;;;;;;;;;;;;;;4964927;28;5108;-62
2024/02/07 02:01:52;;;;;;;;;;;;;;;;;;4948029;28;4525;-62
2024/02/07 02:04:18;;;;;;;;;;;;;;;;;;4950496;28;4637;-64
2024/02/07 02:06:43;;;;;;;;;;;;;;;;;;4962344;28;3404;-62
2024/02/07 02:09:08;;;;;;;;;;;;;;;;;;4964903;28;4913;-62
2024/02/07 02:11:35;;;;;;;;;;;;;;;;;;4955958;28;4511;-61
2024/02/07 02:14:01;;;;;;;;;;;;;;;;;;4949140;28;5523;-63
2024/02/07 02:16:26;;;;;;;;;;;;;;;;;;4946389;28;4692;-62
2024/02/07 02:18:53;;;;;;;;;;;;;;;;;;4965153;28;3564;-62
2024/02/07 02:21:21;;;;;;;;;;;;;;;;;;4962863;28;5332;-64
2024/02/07 02:23:52;;;;;;;;;;;;;;;;;;4960922;28;4728;-62
2024/02/07 02:26:38;;;;;;;;;;;;;;;;;;4965278;28;4675;-62
2024/02/07 02:29:32;;;;;;;;;;;;;;;;;;4961459;28;5106;-62
2024/02/07 02:31:57;;;;;;;;;;;;;;;;;;4967524;28;5103;-62
2024/02/07 02:34:23;;;;;;;;;;;;;;;;;;4946390;28;4797;-62
2024/02/07 02:36:48;;;;;;;;;;;;;;;;;;4964526;28;3211;-64
2024/02/07 02:39:14;;;;;;;;;;;;;;;;;;4949304;28;5041;-63
2024/02/07 02:41:40;;;;;;;;;;;;;;;;;;4966408;28;5130;-64
2024/02/07 02:44:05;;;;;;;;;;;;;;;;;;4949190;28;5235;-63
2024/02/07 02:46:30;;;;;;;;;;;;;;;;;;4964792;28;5109;-62
2024/02/07 02:48:56;;;;;;;;;;;;;;;;;;4959953;28;1357;-64
2024/02/07 02:51:21;;;;;;;;;;;;;;;;;;4957511;28;4429;-62
2024/02/07 02:53:48;;;;;;;;;;;;;;;;;;4959410;28;5101;-62
2024/02/07 02:56:15;;;;;;;;;;;;;;;;;;4966596;28;5172;-63
2024/02/07 02:58:40;;;;;;;;;;;;;;;;;;4962209;28;4558;-62
2024/02/07 03:01:06;;;;;;;;;;;;;;;;;;4968502;28;3349;-62
2024/02/07 03:03:31;;;;;;;;;;;;;;;;;;4961823;28;5097;-62
2024/02/07 03:06:00;;;;;;;;;;;;;;;;;;4946847;28;5149;-63
2024/02/07 03:08:42;;;;;;;;;;;;;;;;;;4957818;28;4920;-63
2024/02/07 03:11:11;;;;;;;;;;;;;;;;;;4950226;28;5121;-62
2024/02/07 03:13:37;;;;;;;;;;;;;;;;;;4945480;28;4664;-62
2024/02/07 03:16:05;;;;;;;;;;;;;;;;;;4965413;28;3380;-63
2024/02/07 03:18:31;;;;;;;;;;;;;;;;;;4960318;28;5103;-63
2024/02/07 03:20:56;;;;;;;;;;;;;;;;;;4959710;28;4637;-63
2024/02/07 03:23:22;;;;;;;;;;;;;;;;;;4963927;28;5140;-63
2024/02/07 03:25:48;;;;;;;;;;;;;;;;;;4965184;28;5175;-63
2024/02/07 03:28:15;;;;;;;;;;;;;;;;;;4963498;28;3427;-63
2024/02/07 03:30:40;;;;;;;;;;;;;;;;;;4966602;28;4928;-63
2024/02/07 03:33:06;;;;;;;;;;;;;;;;;;4945937;28;5173;-64
2024/02/07 03:35:32;;;;;;;;;;;;;;;;;;4941300;28;5101;-63
2024/02/07 03:37:58;;;;;;;;;;;;;;;;;;4962624;28;5077;-63
2024/02/07 03:40:24;;;;;;;;;;;;;;;;;;4964711;28;5251;-62
2024/02/07 03:42:50;;;;;;;;;;;;;;;;;;4961508;28;1158;-62
2024/02/07 03:45:16;;;;;;;;;;;;;;;;;;4959672;28;4583;-64
2024/02/07 03:47:41;;;;;;;;;;;;;;;;;;4967602;28;5026;-63
2024/02/07 03:50:10;;;;;;;;;;;;;;;;;;4965698;28;5522;-62
2024/02/07 03:52:36;;;;;;;;;;;;;;;;;;4967726;28;5174;-63
2024/02/07 03:55:01;;;;;;;;;;;;;;;;;;4964440;28;3262;-63
2024/02/07 03:57:27;;;;;;;;;;;;;;;;;;4963613;28;4937;-62
2024/02/07 03:59:52;;;;;;;;;;;;;;;;;;4961078;28;5230;-62
2024/02/07 04:02:21;;;;;;;;;;;;;;;;;;4962983;28;4638;-63
2024/02/07 04:04:52;;;;;;;;;;;;;;;;;;4965391;28;5721;-64
2024/02/07 04:07:17;;;;;;;;;;;;;;;;;;4948417;28;5008;-64
2024/02/07 04:09:43;;;;;;;;;;;;;;;;;;4962848;28;3564;-65
2024/02/07 05:17:02;;;;;;;;;;;;;;;;;;4969099;28;5044;-63
2024/02/07 05:19:27;;;;;;;;;;;;;;;;;;4964186;28;5110;-63
2024/02/07 05:21:53;;;;;;;;;;;;;;;;;;4948687;28;3452;-63
2024/02/07 05:24:19;;;;;;;;;;;;;;;;;;4966158;28;5102;-63
2024/02/07 05:26:44;;;;;;;;;;;;;;;;;;4963997;28;4653;-62
2024/02/07 05:29:15;;;;;;;;;;;;;;;;;;4965376;28;5051;-62
2024/02/07 05:31:40;;;;;;;;;;;;;;;;;;4965117;28;4535;-62
2024/02/07 05:34:06;;;;;;;;;;;;;;;;;;4963888;28;3402;-61
2024/02/07 05:36:31;;;;;;;;;;;;;;;;;;4962446;28;5250;-63
2024/02/07 05:38:57;;;;;;;;;;;;;;;;;;4961070;28;4444;-63
2024/02/07 05:41:24;;;;;;;;;;;;;;;;;;4965357;28;4486;-63
2024/02/07 05:43:51;;;;;;;;;;;;;;;;;;4961369;28;5355;-64
2024/02/07 05:46:17;;;;;;;;;;;;;;;;;;4963478;28;4893;-63
2024/02/07 05:48:42;;;;;;;;;;;;;;;;;;4970700;28;2284;-62
2024/02/07 05:51:17;;;;;;;;;;;;;;;;;;4965479;28;4865;-63
2024/02/07 05:53:42;;;;;;;;;;;;;;;;;;4957733;28;5108;-63
2024/02/07 05:56:07;;;;;;;;;;;;;;;;;;4969311;28;4465;-62
2024/02/07 05:58:33;;;;;;;;;;;;;;;;;;4969674;28;5068;-63
2024/02/07 06:00:59;;;;;;;;;;;;;;;;;;4959493;28;3438;-62
2024/02/07 06:03:24;;;;;;;;;;;;;;;;;;4961572;28;4666;-64
2024/02/07 06:05:49;;;;;;;;;;;;;;;;;;4967374;28;4496;-63
2024/02/07 06:08:15;;;;;;;;;;;;;;;;;;4969474;28;5071;-63
2024/02/07 06:10:42;;;;;;;;;;;;;;;;;;4968985;28;4789;-63
2024/02/07 06:13:07;;;;;;;;;;;;;;;;;;4961473;28;954;-63
2024/02/07 06:15:33;;;;;;;;;;;;;;;;;;4965098;28;4497;-63
2024/02/07 06:17:59;;;;;;;;;;;;;;;;;;4965014;28;4671;-63
2024/02/07 06:20:24;;;;;;;;;;;;;;;;;;4969111;28;5302;-63
2024/02/07 06:22:49;;;;;;;;;;;;;;;;;;4965225;28;5020;-62
2024/02/07 06:25:15;;;;;;;;;;;;;;;;;;4962841;28;3357;-63
2024/02/07 06:27:40;;;;;;;;;;;;;;;;;;4962844;28;4442;-65
2024/02/07 06:30:06;;;;;;;;;;;;;;;;;;4966144;28;5010;-65
2024/02/07 06:32:31;;;;;;;;;;;;;;;;;;4961441;28;4514;-63
2024/02/07 06:34:57;;;;;;;;;;;;;;;;;;4961880;28;5737;-64
2024/02/07 06:37:22;;;;;;;;;;;;;;;;;;4966665;28;5128;-64
2024/02/07 06:39:47;;;;;;;;;;;;;;;;;;4948882;28;1705;-64
2024/02/07 06:42:12;;;;;;;;;;;;;;;;;;4967866;28;4458;-57
2024/02/07 06:44:38;;;;;;;;;;;;;;;;;;4962978;28;5287;-57
2024/02/07 06:47:03;;;;;;;;;;;;;;;;;;4965665;28;5359;-64
2024/02/07 06:49:28;;;;;;;;;;;;;;;;;;4959626;28;4956;-64
2024/02/07 06:51:54;;;;;;;;;;;;;;;;;;4947834;28;3443;-58
2024/02/07 06:54:19;;;;;;;;;;;;;;;;;;4967055;28;5009;-59
2024/02/07 06:56:44;;;;;;;;;;;;;;;;;;4960673;28;4593;-59
2024/02/07 06:59:12;;;;;;;;;;;;;;;;;;4959440;28;5196;-59
2024/02/07 07:01:38;;;;;;;;;;;;;;;;;;4964541;28;4949;-59
2024/02/07 07:04:03;;;;;;;;;;;;;;;;;;4965115;28;3409;-59
2024/02/07 07:06:29;;;;;;;;;;;;;;;;;;4969072;28;4626;-59
2024/02/07 07:08:54;;;;;;;;;;;;;;;;;;4968021;28;4752;-59
2024/02/07 07:11:19;;;;;;;;;;;;;;;;;;4961623;28;4686;-59
2024/02/07 07:13:44;;;;;;;;;;;;;;;;;;4964162;28;5035;-59
2024/02/07 07:16:10;;;;;;;;;;;;;;;;;;4962427;28;1509;-59
2024/02/07 07:18:35;;;;;;;;;;;;;;;;;;4963927;28;4913;-59
2024/02/07 07:21:00;;;;;;;;;;;;;;;;;;4959628;28;4487;-59
2024/02/07 07:23:26;;;;;;;;;;;;;;;;;;4964749;28;4567;-59
2024/02/07 07:25:51;;;;;;;;;;;;;;;;;;4965404;28;5206;-59
2024/02/07 07:28:16;;;;;;;;;;;;;;;;;;4968735;28;5127;-58
2024/02/07 07:30:42;;;;;;;;;;;;;;;;;;4963424;28;3377;-59
2024/02/07 07:33:07;;;;;;;;;;;;;;;;;;4958605;28;5145;-59
2024/02/07 07:35:32;;;;;;;;;;;;;;;;;;4945084;28;4598;-59
2024/02/07 07:38:02;;;;;;;;;;;;;;;;;;4954163;28;4667;-59
2024/02/07 07:40:29;;;;;;;;;;;;;;;;;;4967610;28;4495;-59
2024/02/07 07:42:54;;;;;;;;;;;;;;;;;;4957186;28;1276;-59
2024/02/07 07:45:19;;;;;;;;;;;;;;;;;;4959073;28;4715;-59
2024/02/07 07:47:44;;;;;;;;;;;;;;;;;;4964505;28;5027;-59
2024/02/07 07:50:10;;;;;;;;;;;;;;;;;;4959329;28;4980;-59
2024/02/07 07:52:35;;;;;;;;;;;;;;;;;;4946199;28;4757;-59
2024/02/07 07:55:00;;;;;;;;;;;;;;;;;;4965779;28;1977;-59
2024/02/07 07:57:26;;;;;;;;;;;;;;;;;;4967087;28;5031;-58
2024/02/07 07:59:51;;;;;;;;;;;;;;;;;;4965187;28;5113;-59
2024/02/07 08:02:17;;;;;;;;;;;;;;;;;;4958843;28;4771;-59
2024/02/07 08:04:43;;;;;;;;;;;;;;;;;;4946588;28;5071;-58
2024/02/07 08:07:08;;;;;;;;;;;;;;;;;;4964126;28;1255;-58
2024/02/07 08:09:34;;;;;;;;;;;;;;;;;;4962720;28;5060;-58
2024/02/07 08:11:59;;;;;;;;;;;;;;;;;;4966203;28;5285;-58
2024/02/07 08:14:25;;;;;;;;;;;;;;;;;;4967309;28;4482;-58
2024/02/07 08:16:50;;;;;;;;;;;;;;;;;;4963316;28;4707;-58
2024/02/07 08:19:16;;;;;;;;;;;;;;;;;;4961637;28;3428;-58
2024/02/07 08:21:41;;;;;;;;;;;;;;;;;;4964697;28;5062;-57
2024/02/07 08:24:06;;;;;;;;;;;;;;;;;;4959217;28;5080;-58
2024/02/07 08:26:32;;;;;;;;;;;;;;;;;;4967367;28;5203;-58
2024/02/07 08:28:57;;;;;;;;;;;;;;;;;;4964047;28;5198;-58
2024/02/07 08:31:22;;;;;;;;;;;;;;;;;;4954388;28;4711;-58
2024/02/07 08:33:48;;;;;;;;;;;;;;;;;;4963793;28;1971;-58
2024/02/07 08:36:13;;;;;;;;;;;;;;;;;;4965132;28;4487;-58
2024/02/07 08:38:41;;;;;;;;;;;;;;;;;;4946535;28;4979;-58
2024/02/07 08:41:06;;;;;;;;;;;;;;;;;;4956709;28;5179;-58
2024/02/07 08:43:31;;;;;;;;;;;;;;;;;;4948467;28;5145;-58
2024/02/07 08:45:56;;;;;;;;;;;;;;;;;;4962650;28;3368;-58
2024/02/07 08:48:22;;;;;;;;;;;;;;;;;;4962089;28;4590;-58
2024/02/07 08:50:47;;;;;;;;;;;;;;;;;;4958443;28;6226;-58
2024/02/07 08:53:12;;;;;;;;;;;;;;;;;;4963284;28;4573;-57
2024/02/07 08:55:38;;;;;;;;;;;;;;;;;;4959791;28;4784;-59
2024/02/07 08:58:03;;;;;;;;;;;;;;;;;;4962073;28;2330;-59
2024/02/07 09:00:28;;;;;;;;;;;;;;;;;;4962885;28;5015;-59
2024/02/07 09:02:54;;;;;;;;;;;;;;;;;;4962338;28;5042;-59
2024/02/07 09:05:19;;;;;;;;;;;;;;;;;;4946904;28;5646;-58
2024/02/07 09:07:45;;;;;;;;;;;;;;;;;;4948415;28;4679;-58
2024/02/07 09:10:11;;;;;;;;;;;;;;;;;;4960871;28;1249;-58
2024/02/07 09:12:36;;;;;;;;;;;;;;;;;;4962546;28;4998;-57
2024/02/07 09:15:01;;;;;;;;;;;;;;;;;;4962481;28;5434;-58
2024/02/07 09:17:27;;;;;;;;;;;;;;;;;;4959569;28;4775;-58
2024/02/07 09:19:52;;;;;;;;;;;;;;;;;;4957726;28;4945;-58
2024/02/07 09:22:17;;;;;;;;;;;;;;;;;;4967996;28;5143;-58
2024/02/07 09:24:43;;;;;;;;;;;;;;;;;;4963052;28;1107;-58
2024/02/07 09:27:08;;;;;;;;;;;;;;;;;;4966897;28;5027;-57
2024/02/07 09:29:33;;;;;;;;;;;;;;;;;;4951016;28;5086;-58
2024/02/07 09:31:59;;;;;;;;;;;;;;;;;;4970551;28;5025;-58
2024/02/07 09:34:24;;;;;;;;;;;;;;;;;;4971059;28;4715;-58
2024/02/07 09:36:49;;;;;;;;;;;;;;;;;;4971308;28;1256;-58
2024/02/07 09:39:15;;;;;;;;;;;;;;;;;;4970442;28;5037;-58
2024/02/07 09:41:40;;;;;;;;;;;;;;;;;;4969810;28;5106;-58
2024/02/07 09:44:06;;;;;;;;;;;;;;;;;;4952772;28;5094;-58
2024/02/07 09:46:37;;;;;;;;;;;;;;;;;;4970138;28;5496;-58
2024/02/07 09:49:03;;;;;;;;;;;;;;;;;;4970727;28;1568;-58
2024/02/07 09:51:29;;;;;;;;;;;;;;;;;;4963815;28;4987;-58
2024/02/07 09:53:54;;;;;;;;;;;;;;;;;;4944446;28;4609;-58
2024/02/07 09:56:19;;;;;;;;;;;;;;;;;;4965511;28;5168;-59
2024/02/07 09:58:45;;;;;;;;;;;;;;;;;;4962340;28;5090;-58
2024/02/07 10:01:12;;;;;;;;;;;;;;;;;;4967489;28;3393;-59
2024/02/07 10:03:39;;;;;;;;;;;;;;;;;;4947525;28;4649;-58
2024/02/07 10:06:04;;;;;;;;;;;;;;;;;;4948820;28;5094;-58
2024/02/07 10:08:30;;;;;;;;;;;;;;;;;;4953397;28;5109;-58
2024/02/07 10:10:55;;;;;;;;;;;;;;;;;;4962298;28;5249;-58
2024/02/07 10:13:20;;;;;;;;;;;;;;;;;;4948297;28;4735;-58
2024/02/07 10:15:47;;;;;;;;;;;;;;;;;;4948518;28;1914;-58
2024/02/07 10:18:12;;;;;;;;;;;;;;;;;;4948863;28;4700;-58
2024/02/07 10:20:38;;;;;;;;;;;;;;;;;;4965338;28;4603;-58
2024/02/07 10:23:09;;;;;;;;;;;;;;;;;;4963658;28;5180;-58
2024/02/07 10:25:34;;;;;;;;;;;;;;;;;;4963593;28;5339;-58
2024/02/07 10:28:03;;;;;;;;;;;;;;;;;;4966465;28;2394;-58
2024/02/07 10:30:28;;;;;;;;;;;;;;;;;;4969930;28;5114;-58
2024/02/07 10:32:55;;;;;;;;;;;;;;;;;;4969222;28;5060;-58
2024/02/07 10:35:20;;;;;;;;;;;;;;;;;;4953614;28;5241;-58
2024/02/07 10:37:46;;;;;;;;;;;;;;;;;;4969648;28;4555;-58
2024/02/07 10:40:11;;;;;;;;;;;;;;;;;;4963651;28;3365;-58
2024/02/07 10:42:38;;;;;;;;;;;;;;;;;;4969970;28;4426;-58
2024/02/07 10:45:09;;;;;;;;;;;;;;;;;;4943348;28;4557;-58
2024/02/07 10:47:36;;;;;;;;;;;;;;;;;;4949652;28;5216;-58
2024/02/07 10:50:01;;;;;;;;;;;;;;;;;;4967740;28;4968;-58
2024/02/07 10:52:27;;;;;;;;;;;;;;;;;;4962317;28;5003;-58
2024/02/07 10:54:52;;;;;;;;;;;;;;;;;;4949841;28;3749;-59
2024/02/07 10:57:17;;;;;;;;;;;;;;;;;;4964860;28;5044;-59
2024/02/07 10:59:44;;;;;;;;;;;;;;;;;;4966008;28;4564;-59
2024/02/07 11:02:10;;;;;;;;;;;;;;;;;;4949222;28;4899;-59
2024/02/07 11:04:36;;;;;;;;;;;;;;;;;;4967878;28;4552;-59
2024/02/07 11:07:02;;;;;;;;;;;;;;;;;;4967782;28;1225;-59
2024/02/07 11:09:27;;;;;;;;;;;;;;;;;;4951034;28;5159;-59
2024/02/07 11:11:53;;;;;;;;;;;;;;;;;;4962811;28;4992;-59
2024/02/07 11:14:18;;;;;;;;;;;;;;;;;;4945270;28;5259;-59
2024/02/07 11:16:43;;;;;;;;;;;;;;;;;;4950208;28;5149;-59
2024/02/07 11:19:09;;;;;;;;;;;;;;;;;;4951412;28;3284;-59
2024/02/07 11:21:34;;;;;;;;;;;;;;;;;;4951809;28;4633;-59
2024/02/07 11:24:00;;;;;;;;;;;;;;;;;;4948660;28;5111;-60
2024/02/07 11:26:25;;;;;;;;;;;;;;;;;;4941654;28;5184;-59
2024/02/07 11:28:50;;;;;;;;;;;;;;;;;;4949517;28;5367;-59
2024/02/07 11:31:16;;;;;;;;;;;;;;;;;;4968016;28;4504;-59
2024/02/07 11:33:43;;;;;;;;;;;;;;;;;;4950568;28;3373;-59
2024/02/07 11:36:16;;;;;;;;;;;;;;;;;;4951355;28;4986;-59
2024/02/07 11:38:43;;;;;;;;;;;;;;;;;;4967110;28;5287;-59
2024/02/07 11:41:08;;;;;;;;;;;;;;;;;;4968548;28;5189;-59
2024/02/07 11:43:37;;;;;;;;;;;;;;;;;;4957796;28;5161;-59
2024/02/07 11:46:05;;;;;;;;;;;;;;;;;;4966590;28;1122;-59
2024/02/07 11:48:32;;;;;;;;;;;;;;;;;;4967610;28;4922;-59
2024/02/07 11:51:04;;;;;;;;;;;;;;;;;;4967311;28;5243;-59
2024/02/07 11:53:30;;;;;;;;;;;;;;;;;;4967507;28;5107;-59
2024/02/07 11:55:55;;;;;;;;;;;;;;;;;;4963352;28;4589;-59
2024/02/07 11:58:22;;;;;;;;;;;;;;;;;;4964484;28;5104;-59
2024/02/07 12:00:48;;;;;;;;;;;;;;;;;;4960138;28;1167;-59
2024/02/07 12:03:14;;;;;;;;;;;;;;;;;;4964624;28;5260;-59
2024/02/07 12:05:39;;;;;;;;;;;;;;;;;;4962030;28;4834;-59
2024/02/07 12:08:04;;;;;;;;;;;;;;;;;;4945506;28;5214;-59
2024/02/07 12:10:30;;;;;;;;;;;;;;;;;;4966674;28;4956;-59
2024/02/07 12:12:55;;;;;;;;;;;;;;;;;;4962661;28;3360;-58
2024/02/07 12:15:23;;;;;;;;;;;;;;;;;;4959778;28;5041;-59
2024/02/07 12:17:49;;;;;;;;;;;;;;;;;;4943794;28;5118;-59
2024/02/07 12:20:14;;;;;;;;;;;;;;;;;;4962903;28;4578;-59
2024/02/07 12:22:40;;;;;;;;;;;;;;;;;;4967285;28;4547;-59
2024/02/07 12:25:05;;;;;;;;;;;;;;;;;;4956389;28;3262;-59
2024/02/07 12:27:31;;;;;;;;;;;;;;;;;;4957641;28;4958;-59
2024/02/07 12:29:56;;;;;;;;;;;;;;;;;;4964847;28;4686;-59
2024/02/07 12:32:22;;;;;;;;;;;;;;;;;;4965980;28;5162;-60
2024/02/07 12:34:47;;;;;;;;;;;;;;;;;;4963209;28;5396;-59
2024/02/07 12:37:14;;;;;;;;;;;;;;;;;;4965120;28;3365;-59
2024/02/07 12:39:39;;;;;;;;;;;;;;;;;;4963323;28;5067;-59
2024/02/07 12:42:05;;;;;;;;;;;;;;;;;;4962214;28;5049;-59
2024/02/07 12:44:30;;;;;;;;;;;;;;;;;;4963701;28;4534;-59
2024/02/07 12:46:56;;;;;;;;;;;;;;;;;;4963121;28;5054;-59
2024/02/07 12:49:21;;;;;;;;;;;;;;;;;;4964815;28;4540;-59
2024/02/07 12:51:46;;;;;;;;;;;;;;;;;;4962974;28;3393;-59
2024/02/07 12:54:12;;;;;;;;;;;;;;;;;;4951988;28;5292;-59
2024/02/07 12:56:37;;;;;;;;;;;;;;;;;;4944893;28;5006;-59
2024/02/07 12:59:02;;;;;;;;;;;;;;;;;;4963771;28;5067;-59
2024/02/07 13:01:27;;;;;;;;;;;;;;;;;;4969901;28;5095;-58
2024/02/07 13:03:53;;;;;;;;;;;;;;;;;;4967526;28;3469;-59
2024/02/07 13:06:20;;;;;;;;;;;;;;;;;;4966694;28;5140;-59
2024/02/07 13:08:46;;;;;;;;;;;;;;;;;;4968957;28;4594;-59
2024/02/07 13:11:11;;;;;;;;;;;;;;;;;;4948956;28;4563;-59
2024/02/07 13:13:37;;;;;;;;;;;;;;;;;;4970256;28;4852;-59
2024/02/07 13:16:02;;;;;;;;;;;;;;;;;;4965386;28;1398;-59
2024/02/07 13:18:27;;;;;;;;;;;;;;;;;;4947279;28;4600;-58
2024/02/07 13:20:53;;;;;;;;;;;;;;;;;;4953557;28;4567;-59
2024/02/07 13:23:31;;;;;;;;;;;;;;;;;;4965143;28;5281;-59
2024/02/07 13:25:57;;;;;;;;;;;;;;;;;;4952127;28;4607;-60
2024/02/07 13:28:22;;;;;;;;;;;;;;;;;;4969195;28;4558;-59
2024/02/07 13:30:47;;;;;;;;;;;;;;;;;;4971833;28;1174;-59
2024/02/07 13:33:12;;;;;;;;;;;;;;;;;;4953426;28;4793;-59
2024/02/07 13:35:38;;;;;;;;;;;;;;;;;;4971241;28;4990;-59
2024/02/07 13:38:03;;;;;;;;;;;;;;;;;;4970550;28;5015;-59
2024/02/07 13:40:28;;;;;;;;;;;;;;;;;;4969924;28;4484;-59
2024/02/07 13:42:54;;;;;;;;;;;;;;;;;;4963384;28;3408;-59
2024/02/07 13:45:19;;;;;;;;;;;;;;;;;;4971197;28;5435;-58
2024/02/07 13:47:48;;;;;;;;;;;;;;;;;;4969412;28;4494;-59
2024/02/07 13:50:13;;;;;;;;;;;;;;;;;;4966606;28;4722;-60
2024/02/07 13:52:39;;;;;;;;;;;;;;;;;;4967116;28;4636;-58
2024/02/07 13:55:04;;;;;;;;;;;;;;;;;;4971245;28;1934;-60
2024/02/07 13:57:30;;;;;;;;;;;;;;;;;;4968529;28;4511;-59
2024/02/07 13:59:55;;;;;;;;;;;;;;;;;;4969899;28;5166;-59
2024/02/07 14:02:22;;;;;;;;;;;;;;;;;;4968622;28;5125;-59
2024/02/07 14:04:47;;;;;;;;;;;;;;;;;;4968735;28;5201;-59
2024/02/07 14:07:13;;;;;;;;;;;;;;;;;;4951991;28;1763;-59
2024/02/07 14:09:38;;;;;;;;;;;;;;;;;;4965906;28;4493;-58
2024/02/07 14:12:03;;;;;;;;;;;;;;;;;;4963733;28;4550;-58
2024/02/07 14:14:29;;;;;;;;;;;;;;;;;;4965388;28;4810;-59
2024/02/07 14:16:54;;;;;;;;;;;;;;;;;;4960672;28;5139;-59
2024/02/07 14:19:19;;;;;;;;;;;;;;;;;;4962587;28;4628;-59
2024/02/07 14:21:45;;;;;;;;;;;;;;;;;;4971155;28;1144;-59
2024/02/07 14:24:10;;;;;;;;;;;;;;;;;;4959224;28;5221;-58
2024/02/07 14:26:36;;;;;;;;;;;;;;;;;;4968643;28;4508;-59
2024/02/07 14:29:01;;;;;;;;;;;;;;;;;;4969567;28;4490;-59
2024/02/07 14:31:27;;;;;;;;;;;;;;;;;;4950873;28;4720;-60
2024/02/07 14:33:52;;;;;;;;;;;;;;;;;;4965115;28;3389;-58
2024/02/07 14:36:19;;;;;;;;;;;;;;;;;;4966767;28;5179;-59
2024/02/07 14:38:44;;;;;;;;;;;;;;;;;;4958489;28;4709;-59
2024/02/07 14:41:09;;;;;;;;;;;;;;;;;;4965463;28;5239;-60
2024/02/07 14:43:35;;;;;;;;;;;;;;;;;;4962011;28;4701;-59
2024/02/07 14:46:00;;;;;;;;;;;;;;;;;;4965058;28;1071;-59
2024/02/07 14:48:25;;;;;;;;;;;;;;;;;;4967203;28;5247;-59
2024/02/07 14:50:51;;;;;;;;;;;;;;;;;;4963723;28;4625;-58
2024/02/07 14:53:16;;;;;;;;;;;;;;;;;;4968971;28;5254;-59
2024/02/07 14:55:41;;;;;;;;;;;;;;;;;;4966891;28;5193;-59
2024/02/07 14:58:07;;;;;;;;;;;;;;;;;;4964592;28;1177;-59
2024/02/07 15:00:32;;;;;;;;;;;;;;;;;;4965472;28;4471;-57
2024/02/07 15:02:58;;;;;;;;;;;;;;;;;;4962669;28;4483;-58
2024/02/07 15:05:23;;;;;;;;;;;;;;;;;;4969528;28;4935;-59
2024/02/07 15:07:49;;;;;;;;;;;;;;;;;;4968686;28;4701;-58
2024/02/07 15:10:15;;;;;;;;;;;;;;;;;;4968864;28;3585;-58
2024/02/07 15:12:40;;;;;;;;;;;;;;;;;;4966476;28;4433;-58
2024/02/07 15:15:06;;;;;;;;;;;;;;;;;;4969294;28;5061;-58
2024/02/07 15:17:31;;;;;;;;;;;;;;;;;;4963851;28;5028;-58
2024/02/07 15:19:56;;;;;;;;;;;;;;;;;;4962092;28;4561;-58
2024/02/07 15:22:22;;;;;;;;;;;;;;;;;;4965723;28;5109;-58
2024/02/07 15:24:47;;;;;;;;;;;;;;;;;;4966115;28;3515;-58
2024/02/07 15:27:12;;;;;;;;;;;;;;;;;;4965935;28;5059;-58
2024/02/07 15:29:37;;;;;;;;;;;;;;;;;;4967358;28;5081;-58
2024/02/07 15:32:03;;;;;;;;;;;;;;;;;;4959568;28;5399;-58
2024/02/07 15:34:28;;;;;;;;;;;;;;;;;;4957751;28;4557;-59
2024/02/07 15:36:53;;;;;;;;;;;;;;;;;;4968286;28;3476;-57
2024/02/07 15:39:18;;;;;;;;;;;;;;;;;;4963290;28;5079;-58
2024/02/07 15:41:43;;;;;;;;;;;;;;;;;;4963716;28;5160;-59
2024/02/07 15:44:09;;;;;;;;;;;;;;;;;;4966423;28;5174;-58
2024/02/07 15:46:34;;;;;;;;;;;;;;;;;;4967108;28;5166;-58
2024/02/07 15:48:59;;;;;;;;;;;;;;;;;;4969364;28;1152;-58
2024/02/07 15:51:26;;;;;;;;;;;;;;;;;;4966942;28;4690;-59
2024/02/07 15:53:51;;;;;;;;;;;;;;;;;;4962586;28;4526;-59
2024/02/07 15:56:17;;;;;;;;;;;;;;;;;;4965696;28;4968;-59
2024/02/07 15:58:42;;;;;;;;;;;;;;;;;;4966871;28;5103;-59
2024/02/07 16:01:07;;;;;;;;;;;;;;;;;;4964597;28;2971;-59
2024/02/07 16:03:32;;;;;;;;;;;;;;;;;;4960200;28;4984;-59
2024/02/07 16:05:59;;;;;;;;;;;;;;;;;;4969350;28;4736;-59
2024/02/07 16:08:24;;;;;;;;;;;;;;;;;;4961642;28;4516;-59
2024/02/07 16:10:49;;;;;;;;;;;;;;;;;;4963337;28;5321;-58
2024/02/07 16:13:15;;;;;;;;;;;;;;;;;;4966458;28;3243;-59
2024/02/07 16:15:40;;;;;;;;;;;;;;;;;;4962027;28;4535;-58
2024/02/07 16:18:05;;;;;;;;;;;;;;;;;;4966676;28;5018;-58
2024/02/07 16:20:30;;;;;;;;;;;;;;;;;;4961830;28;5008;-59
2024/02/07 16:22:56;;;;;;;;;;;;;;;;;;4945237;28;4560;-58
2024/02/07 16:25:21;;;;;;;;;;;;;;;;;;4966784;28;4564;-58
2024/02/07 16:27:46;;;;;;;;;;;;;;;;;;4967143;28;1163;-59
2024/02/07 16:30:12;;;;;;;;;;;;;;;;;;4962830;28;5086;-58
2024/02/07 16:32:37;;;;;;;;;;;;;;;;;;4950862;28;5047;-58
2024/02/07 16:35:04;;;;;;;;;;;;;;;;;;4959445;28;4597;-58
2024/02/07 16:37:30;;;;;;;;;;;;;;;;;;4968390;28;5206;-59
2024/02/07 16:39:55;;;;;;;;;;;;;;;;;;4966986;28;3369;-58
2024/02/07 16:42:20;;;;;;;;;;;;;;;;;;4965576;28;4733;-57
2024/02/07 16:44:46;;;;;;;;;;;;;;;;;;4966709;28;5202;-59
2024/02/07 16:47:11;;;;;;;;;;;;;;;;;;4947229;28;5152;-57
2024/02/07 16:49:36;;;;;;;;;;;;;;;;;;4949103;28;5179;-59
2024/02/07 16:52:02;;;;;;;;;;;;;;;;;;4965198;28;3373;-57
2024/02/07 16:54:27;;;;;;;;;;;;;;;;;;4964520;28;5008;-58
2024/02/07 16:56:52;;;;;;;;;;;;;;;;;;4965436;28;4979;-58
2024/02/07 16:59:17;;;;;;;;;;;;;;;;;;4963025;28;5148;-58
2024/02/07 17:01:43;;;;;;;;;;;;;;;;;;4964483;28;5129;-59
2024/02/07 17:04:12;;;;;;;;;;;;;;;;;;4968584;28;1123;-59
2024/02/07 17:06:37;;;;;;;;;;;;;;;;;;4966963;28;4852;-59
2024/02/07 17:09:03;;;;;;;;;;;;;;;;;;4965251;28;4966;-58
2024/02/07 17:11:29;;;;;;;;;;;;;;;;;;4964573;28;5018;-58
2024/02/07 17:13:55;;;;;;;;;;;;;;;;;;4964875;28;4496;-58
2024/02/07 17:16:20;;;;;;;;;;;;;;;;;;4965519;28;5070;-57
2024/02/07 17:18:45;;;;;;;;;;;;;;;;;;4965111;28;1030;-58
2024/02/07 17:21:11;;;;;;;;;;;;;;;;;;4966421;28;4513;-58
2024/02/07 17:23:36;;;;;;;;;;;;;;;;;;4963005;28;5649;-58
2024/02/07 17:26:02;;;;;;;;;;;;;;;;;;4966102;28;4732;-58
2024/02/07 17:28:27;;;;;;;;;;;;;;;;;;4965566;28;5120;-58
2024/02/07 17:30:52;;;;;;;;;;;;;;;;;;4967631;28;1107;-58
2024/02/07 17:33:18;;;;;;;;;;;;;;;;;;4966077;28;4947;-58
2024/02/07 17:35:44;;;;;;;;;;;;;;;;;;4965438;28;5124;-58
2024/02/07 17:38:09;;;;;;;;;;;;;;;;;;4964815;28;5142;-58
2024/02/07 17:40:35;;;;;;;;;;;;;;;;;;4966862;28;4485;-57
2024/02/07 17:43:00;;;;;;;;;;;;;;;;;;4957369;28;1121;-58
2024/02/07 17:45:26;;;;;;;;;;;;;;;;;;4965613;28;4501;-58
2024/02/07 17:47:51;;;;;;;;;;;;;;;;;;4970299;28;5056;-58
2024/02/07 17:50:17;;;;;;;;;;;;;;;;;;4963149;28;4517;-57
2024/02/07 17:52:43;;;;;;;;;;;;;;;;;;4953199;28;5189;-58
2024/02/07 17:55:08;;;;;;;;;;;;;;;;;;4963980;28;3431;-58
2024/02/07 17:57:33;;;;;;;;;;;;;;;;;;4967090;28;4956;-58